Motte Rimrock Reserve, California Weather observations

Data are for 10 minute period ending at time listed.
 Day   Time   Solar   Ave.   Ave.  Ave.  Vector  Max.   Baro.   Total    
  of    of     Rad.   Air    Rel.  Wind   Wind   Wind  Press.  Precip.   
Year   Day            Temp.  Hum.  Speed  Dir.   Gust                    
2016   (PST)  Kw/m2    F      %     mph   deg.    mph    mb.     in.     
-------------------------------------------------------------------------
  38    9:30   0.49   66.6    14    9.7   315    15.4   954.7    0.00 
  38    9:40   0.52   67.1    14   10.0   314    13.8   954.8    0.00 
  38    9:50   0.54   67.4    14   12.2   313    15.3   954.7    0.00 
  38   10:00   0.56   67.9    13   12.7   323    15.1   954.8    0.00 
  38   10:10   0.58   68.4    13   13.7   322    17.4   954.8    0.00 
  38   10:20   0.60   69.0    13   12.1   333    16.0   955.0    0.00 
  38   10:30   0.62   69.2    13   12.2   336    15.6   955.0    0.00 
  38   10:40   0.64   69.9    12   11.1   343    15.3   954.9    0.00 
  38   10:50   0.66   71.2    13   10.9   356    16.1   954.7    0.00 
  38   11:00   0.67   71.5    12   11.9   354    17.0   954.6    0.00 
  38   11:10   0.68   72.2    12   11.3     9    17.5   954.5    0.00 
  38   11:20   0.69   73.0    12   11.4    16    18.0   954.4    0.00 
  38   11:30   0.70   73.8    11   12.3    40    19.0   954.4    0.00 
  38   11:40   0.70   74.0    11   12.3    40    19.6   954.4    0.00 
  38   11:50   0.71   73.8    12   13.8    31    19.8   954.3    0.00 
  38   12:00   0.71   74.4    11   12.8    31    21.0   954.2    0.00 
  38   12:10   0.72   74.9    11   12.6    20    20.0   953.9    0.00 
  38   12:20   0.72   75.1    11   13.4    17    22.5   953.8    0.00 
  38   12:30   0.71   75.3    10   16.9    34    24.3   953.6    0.00 
  38   12:40   0.70   75.7    10   16.4    35    24.3   953.4    0.00 
  38   12:50   0.70   76.0    10   15.6    34    24.1   953.3    0.00 
  38   13:00   0.69   75.7    10   15.6    37    25.6   953.2    0.00 
  38   13:10   0.68   75.8    10   14.9    52    23.5   953.1    0.00 
  38   13:20   0.67   76.5    11   10.9    50    17.5   953.1    0.00 
  38   13:30   0.65   77.2    11    8.8    20    13.2   953.0    0.00 
  38   13:40   0.63   76.7    11    8.5     3    16.2   952.9    0.00 
  38   13:50   0.62   76.4    12    8.0     2    11.2   952.8    0.00 
  38   14:00   0.60   76.5    12    8.4     5    12.1   952.8    0.00 
  38   14:10   0.58   77.0    11    9.0    36    15.9   952.8    0.00 
  38   14:20   0.53   76.9    11   10.2    50    16.1   952.7    0.00 
  38   14:30   0.53   76.6    11   12.5    49    19.7   952.6    0.00 
  38   14:40   0.51   76.3    11   10.9    48    17.8   952.6    0.00 
  38   14:50   0.48   76.2    11   12.4    55    17.4   952.5    0.00 
  38   15:00   0.45   76.3    11    9.2    33    14.8   952.6    0.00 
  38   15:10   0.42   76.5    11    8.2    36    12.9   952.6    0.00 
  38   15:20   0.39   76.3    10   10.0    47    16.2   952.5    0.00 
  38   15:30   0.36   76.2    10    9.3    38    15.5   952.5    0.00 
  38   15:40   0.33   75.9    10    9.8    50    16.2   952.5    0.00 
  38   15:50   0.30   75.7    10    9.7    43    16.2   952.6    0.00 
  38   16:00   0.27   75.3    10    9.4    31    13.4   952.6    0.00 
  38   16:10   0.23   75.0    10   11.5    42    17.5   952.6    0.00 
  38   16:20   0.20   74.6    10   11.0    40    16.7   952.7    0.00 
  38   16:30   0.17   74.4    10    8.2    35    15.8   952.8    0.00 
  38   16:40   0.13   73.8    11    8.7    35    15.3   952.9    0.00 
  38   16:50   0.10   73.3    10    9.5    38    17.5   952.9    0.00 
  38   17:00   0.07   72.6    10   10.8    42    18.0   952.9    0.00 
  38   17:10   0.04   72.0    10   11.2    44    22.9   952.9    0.00 
  38   17:20   0.01   71.3    10   10.2    46    16.8   953.0    0.00 
  38   17:30   0.01   70.6    11   10.5    46    17.9   953.1    0.00 
  38   17:40   0.01   70.1    11   10.9    49    17.3   953.2    0.00 
  38   17:50   0.01   70.1    11   11.1    42    17.1   953.3    0.00 
  38   18:00   0.00   69.7    11   10.1    41    15.1   953.3    0.00 
  38   18:10   0.00   69.3    11    9.1    39    14.2   953.3    0.00 
  38   18:20   0.00   68.9    11    9.8    34    15.3   953.3    0.00 
  38   18:30   0.00   68.1    11    9.0     2    12.9   953.4    0.00 
  38   18:40   0.00   67.3    12   11.1   338    14.8   953.4    0.00 
  38   18:50   0.00   67.5    12   12.1   346    15.8   953.5    0.00 
  38   19:00   0.00   67.3    12   12.7   338    18.0   953.6    0.00 
  38   19:10   0.00   65.0    13   12.3   331    15.8   953.6    0.00 
  38   19:20   0.00   64.5    14   12.5   330    15.3   953.6    0.00 
  38   19:30   0.00   63.4    14   12.5   327    14.7   953.6    0.00 
  38   19:40   0.00   63.9    14   10.9   341    16.1   953.7    0.00 
  38   19:50   0.00   62.4    15   11.3   333    14.2   953.7    0.00 
  38   20:00   0.00   62.0    15   10.7   327    12.9   953.9    0.00 
  38   20:10   0.00   61.6    15   10.5   324    13.7   953.9    0.00 
  38   20:20   0.00   60.7    16   11.7   323    14.0   953.8    0.00 
  38   20:30   0.00   61.1    15   11.0   323    14.0   953.8    0.00 
  38   20:40   0.00   60.7    15   10.9   324    13.5   953.8    0.00 
  38   20:50   0.00   61.2    15   10.9   328    14.6   953.7    0.00 
  38   21:00   0.00   61.3    15   12.7   331    15.4   953.7    0.00 
  38   21:10   0.00   61.9    14   13.5   330    15.8   953.7    0.00 
  38   21:20   0.00   61.9    14   12.5   328    16.4   953.7    0.00 
  38   21:30   0.00   61.3    15   11.4   327    13.6   953.7    0.00 
  38   21:40   0.00   60.7    15   11.1   330    13.7   953.8    0.00 
  38   21:50   0.00   60.4    16   10.6   331    13.8   953.9    0.00 
  38   22:00   0.00   60.0    16   11.2   327    13.4   953.9    0.00 
  38   22:10   0.00   59.8    16   11.3   329    12.7   953.8    0.00 
  38   22:20   0.00   59.9    16   10.8   327    12.9   953.9    0.00 
  38   22:30   0.00   60.0    16   11.2   325    13.3   953.9    0.00 
  38   22:40   0.00   59.6    17   10.7   322    12.4   953.9    0.00 
  38   22:50   0.00   59.6    17   10.6   321    13.3   953.9    0.00 
  38   23:00   0.00   60.2    16   12.0   318    14.7   953.9    0.00 
  38   23:10   0.00   60.5    16   12.7   317    15.3   953.9    0.00 
  38   23:20   0.00   60.3    16   11.5   320    15.2   954.0    0.00 
  38   23:30   0.00   60.3    16   11.0   331    14.0   954.1    0.00 
  38   23:40   0.00   61.6    15   10.8   345    14.9   954.1    0.00 
  38   23:50   0.00   63.7    14   11.5   354    15.6   954.1    0.00 
  39    0:00   0.00   64.3    13   12.5   349    17.8   954.2    0.00 
  39    0:10   0.00   64.3    14   11.6   350    15.5   954.2    0.00 
  39    0:20   0.00   64.7    13   11.0     4    15.1   954.3    0.00 
  39    0:30   0.00   65.5    13   11.2    22    18.0   954.2    0.00 
  39    0:40   0.00   65.2    13   10.2    30    15.9   954.2    0.00 
  39    0:50   0.00   64.7    14   10.1    17    15.3   954.1    0.00 
  39    1:00   0.00   63.6    14   10.1     1    12.6   954.1    0.00 
  39    1:10   0.00   61.1    16   11.1   337    13.2   954.2    0.00 
  39    1:20   0.00   61.1    17   10.9   337    13.2   954.0    0.00 
  39    1:30   0.00   60.5    18   10.5   326    12.4   954.0    0.00 
  39    1:40   0.00   59.2    19   12.3   317    15.8   953.9    0.00 
  39    1:50   0.00   59.6    19   11.9   320    15.6   953.7    0.00 
  39    2:00   0.00   59.1    20   10.9   318    14.0   953.6    0.00 
  39    2:10   0.00   58.9    20   10.8   321    13.3   953.5    0.00 
  39    2:20   0.00   58.6    20   10.8   334    13.7   953.4    0.00 
  39    2:30   0.00   62.3    17   10.5     4    15.9   953.4    0.00 
  39    2:40   0.00   64.1    15   12.1     9    19.0   953.4    0.00 
  39    2:50   0.00   63.8    16   11.8    10    18.3   953.4    0.00 
  39    3:00   0.00   64.2    15   13.3    17    18.6   953.4    0.00 
  39    3:10   0.00   65.0    15   13.6    21    20.4   953.4    0.00 
  39    3:20   0.00   65.2    15   12.5     0    19.7   953.4    0.00 
  39    3:30   0.00   63.0    17   12.3   335    16.2   953.4    0.00 
  39    3:40   0.00   61.3    19   11.8   334    17.0   953.4    0.00 
  39    3:50   0.00   59.5    21   12.0   322    16.0   953.3    0.00 
  39    4:00   0.00   59.1    21   12.6   322    15.6   953.2    0.00 
  39    4:10   0.00   58.4    22   11.5   315    14.3   953.2    0.00 
  39    4:20   0.00   58.1    23   12.0   315    14.5   953.2    0.00 
  39    4:30   0.00   57.9    23   10.9   326    13.3   953.2    0.00 
  39    4:40   0.00   58.7    22    9.7   340    12.0   953.1    0.00 
  39    4:50   0.00   60.0    20   10.1   347    13.6   953.1    0.00 
  39    5:00   0.00   61.4    18   11.7   357    15.6   953.1    0.00 
  39    5:10   0.00   62.1    18   11.3     5    15.4   953.1    0.00 
  39    5:20   0.00   62.6    17   11.8     2    16.2   953.3    0.00 
  39    5:30   0.00   62.8    17   12.0   352    15.6   953.4    0.00 
  39    5:40   0.00   59.7    20    9.8   324    13.1   953.6    0.00 
  39    5:50   0.00   57.5    23    9.7   324    12.4   953.5    0.00 
  39    6:00   0.00   57.6    23   10.2   321    12.4   953.4    0.00 
  39    6:10   0.00   57.7    22   10.3   332    13.2   953.3    0.00 
  39    6:20   0.00   59.3    21   10.0   349    15.7   953.5    0.00 
  39    6:30   0.00   62.6    18   11.6    19    17.2   953.6    0.00 
  39    6:40   0.00   63.7    16   13.3    20    18.9   953.8    0.00 
  39    6:50   0.00   62.2    18   14.0     3    20.1   953.8    0.00 
  39    7:00   0.02   61.8    19   14.7   348    22.6   953.8    0.00 
  39    7:10   0.04   60.4    20   14.6   332    19.6   953.7    0.00 
  39    7:20   0.07   58.5    23   12.9   326    15.6   953.8    0.00 
  39    7:30   0.10   58.1    24   13.4   319    17.5   953.8    0.00 
  39    7:40   0.14   59.1    23   11.3   336    14.8   954.0    0.00 
  39    7:50   0.17   60.7    22   10.6   341    13.4   954.1    0.00 
  39    8:00   0.20   62.9    20   11.3   351    16.2   954.2    0.00 
  39    8:10   0.22   65.1    17   11.2     7    17.0   954.3    0.00 
  39    8:20   0.27   66.2    16   11.8     6    16.2   954.5    0.00 
  39    8:30   0.30   66.7    16   12.1     2    17.1   954.8    0.00 
  39    8:40   0.34   66.8    16   14.1   352    17.8   954.9    0.00 
  39    8:50   0.37   67.5    16   11.4   350    16.1   955.0    0.00 
  39    9:00   0.40   68.7    15   10.4   359    16.1   955.1    0.00 
  39    9:10   0.43   69.8    14   10.7     2    15.1   955.1    0.00 
  39    9:20   0.46   70.8    14    9.6    18    15.9   955.1    0.00 

Return to Motte Rimrock Reserve graphs page.


Western Regional Climate Center,wrcc@dri.edu